sensor_id;sensor_type;location;lat;lon;timestamp;temperature;humidity
73277;DHT22;61501;43.316;5.372;2023-04-03T00:01:12;11.90;93.30
73277;DHT22;61501;43.316;5.372;2023-04-03T00:03:38;11.90;93.50
73277;DHT22;61501;43.316;5.372;2023-04-03T00:06:04;11.90;93.50
73277;DHT22;61501;43.316;5.372;2023-04-03T00:08:32;11.90;93.70
73277;DHT22;61501;43.316;5.372;2023-04-03T00:10:58;11.80;93.70
73277;DHT22;61501;43.316;5.372;2023-04-03T00:13:24;11.90;93.90
73277;DHT22;61501;43.316;5.372;2023-04-03T00:15:50;11.80;94.00
73277;DHT22;61501;43.316;5.372;2023-04-03T00:18:16;11.80;93.90
73277;DHT22;61501;43.316;5.372;2023-04-03T00:20:42;11.80;94.00
73277;DHT22;61501;43.316;5.372;2023-04-03T00:23:07;11.80;94.10
73277;DHT22;61501;43.316;5.372;2023-04-03T00:25:33;11.80;94.10
73277;DHT22;61501;43.316;5.372;2023-04-03T00:28:00;11.70;94.40
73277;DHT22;61501;43.316;5.372;2023-04-03T00:30:26;11.70;94.50
73277;DHT22;61501;43.316;5.372;2023-04-03T00:32:52;11.70;94.50
73277;DHT22;61501;43.316;5.372;2023-04-03T00:35:19;11.80;94.50
73277;DHT22;61501;43.316;5.372;2023-04-03T00:37:45;11.80;94.30
73277;DHT22;61501;43.316;5.372;2023-04-03T00:40:13;11.80;94.40
73277;DHT22;61501;43.316;5.372;2023-04-03T00:42:41;11.80;94.50
73277;DHT22;61501;43.316;5.372;2023-04-03T00:47:37;11.70;94.80
73277;DHT22;61501;43.316;5.372;2023-04-03T00:50:04;11.70;94.80
73277;DHT22;61501;43.316;5.372;2023-04-03T00:52:30;11.70;95.00
73277;DHT22;61501;43.316;5.372;2023-04-03T00:55:03;11.60;95.60
73277;DHT22;61501;43.316;5.372;2023-04-03T00:57:30;11.60;95.10
73277;DHT22;61501;43.316;5.372;2023-04-03T01:00:04;11.70;95.10
73277;DHT22;61501;43.316;5.372;2023-04-03T01:02:30;11.70;95.20
73277;DHT22;61501;43.316;5.372;2023-04-03T01:04:56;11.60;95.20
73277;DHT22;61501;43.316;5.372;2023-04-03T01:07:30;11.60;95.20
73277;DHT22;61501;43.316;5.372;2023-04-03T01:09:58;11.60;95.30
73277;DHT22;61501;43.316;5.372;2023-04-03T01:12:26;11.60;95.40
73277;DHT22;61501;43.316;5.372;2023-04-03T01:14:57;11.60;95.30
73277;DHT22;61501;43.316;5.372;2023-04-03T01:25:43;11.50;95.20
73277;DHT22;61501;43.316;5.372;2023-04-03T01:28:17;11.50;95.60
73277;DHT22;61501;43.316;5.372;2023-04-03T01:30:56;11.50;95.50
73277;DHT22;61501;43.316;5.372;2023-04-03T01:33:25;11.40;95.70
73277;DHT22;61501;43.316;5.372;2023-04-03T01:35:50;11.40;95.80
73277;DHT22;61501;43.316;5.372;2023-04-03T01:38:16;11.30;95.90
73277;DHT22;61501;43.316;5.372;2023-04-03T01:40:47;11.30;96.10
73277;DHT22;61501;43.316;5.372;2023-04-03T01:43:12;11.30;96.10
73277;DHT22;61501;43.316;5.372;2023-04-03T01:45:38;11.30;96.20
73277;DHT22;61501;43.316;5.372;2023-04-03T01:48:04;11.30;96.30
73277;DHT22;61501;43.316;5.372;2023-04-03T01:50:30;11.20;96.40
73277;DHT22;61501;43.316;5.372;2023-04-03T01:52:55;11.20;96.40
73277;DHT22;61501;43.316;5.372;2023-04-03T01:55:21;11.20;96.60
73277;DHT22;61501;43.316;5.372;2023-04-03T01:57:46;11.10;96.70
73277;DHT22;61501;43.316;5.372;2023-04-03T02:00:12;11.10;96.90
73277;DHT22;61501;43.316;5.372;2023-04-03T02:02:39;11.10;96.90
73277;DHT22;61501;43.316;5.372;2023-04-03T02:05:05;11.00;97.00
73277;DHT22;61501;43.316;5.372;2023-04-03T02:07:31;11.00;96.90
73277;DHT22;61501;43.316;5.372;2023-04-03T02:09:56;11.00;97.10
73277;DHT22;61501;43.316;5.372;2023-04-03T02:12:22;11.00;97.00
73277;DHT22;61501;43.316;5.372;2023-04-03T02:14:48;11.00;97.00
73277;DHT22;61501;43.316;5.372;2023-04-03T02:17:13;11.00;97.10
73277;DHT22;61501;43.316;5.372;2023-04-03T02:19:39;10.90;96.90
73277;DHT22;61501;43.316;5.372;2023-04-03T02:22:05;11.00;97.00
73277;DHT22;61501;43.316;5.372;2023-04-03T02:24:31;10.90;97.00
73277;DHT22;61501;43.316;5.372;2023-04-03T02:26:58;11.00;97.00
73277;DHT22;61501;43.316;5.372;2023-04-03T02:29:24;10.90;97.00
73277;DHT22;61501;43.316;5.372;2023-04-03T02:31:50;10.90;97.10
73277;DHT22;61501;43.316;5.372;2023-04-03T02:34:16;10.80;97.10
73277;DHT22;61501;43.316;5.372;2023-04-03T02:36:41;10.80;97.30
73277;DHT22;61501;43.316;5.372;2023-04-03T02:39:07;10.80;97.30
73277;DHT22;61501;43.316;5.372;2023-04-03T02:41:33;10.80;97.20
73277;DHT22;61501;43.316;5.372;2023-04-03T02:44:02;10.70;97.60
73277;DHT22;61501;43.316;5.372;2023-04-03T02:46:28;10.70;97.60
73277;DHT22;61501;43.316;5.372;2023-04-03T02:48:54;10.70;97.90
73277;DHT22;61501;43.316;5.372;2023-04-03T02:51:20;10.60;97.90
73277;DHT22;61501;43.316;5.372;2023-04-03T02:53:45;10.60;98.00
73277;DHT22;61501;43.316;5.372;2023-04-03T02:56:11;10.60;98.10
73277;DHT22;61501;43.316;5.372;2023-04-03T02:58:37;10.60;98.10
73277;DHT22;61501;43.316;5.372;2023-04-03T03:01:02;10.50;98.20
73277;DHT22;61501;43.316;5.372;2023-04-03T03:03:28;10.50;98.30
73277;DHT22;61501;43.316;5.372;2023-04-03T03:06:08;10.50;98.30
73277;DHT22;61501;43.316;5.372;2023-04-03T03:08:34;10.60;99.20
73277;DHT22;61501;43.316;5.372;2023-04-03T03:11:00;10.80;98.20
73277;DHT22;61501;43.316;5.372;2023-04-03T03:13:26;10.90;97.60
73277;DHT22;61501;43.316;5.372;2023-04-03T03:15:52;10.70;97.40
73277;DHT22;61501;43.316;5.372;2023-04-03T03:18:17;10.60;97.80
73277;DHT22;61501;43.316;5.372;2023-04-03T03:20:43;10.60;97.80
73277;DHT22;61501;43.316;5.372;2023-04-03T03:23:09;10.50;97.80
73277;DHT22;61501;43.316;5.372;2023-04-03T03:25:39;10.60;97.80
73277;DHT22;61501;43.316;5.372;2023-04-03T03:28:06;10.70;97.40
73277;DHT22;61501;43.316;5.372;2023-04-03T03:30:31;10.60;97.70
73277;DHT22;61501;43.316;5.372;2023-04-03T03:32:57;10.50;97.90
73277;DHT22;61501;43.316;5.372;2023-04-03T03:35:22;10.50;98.00
73277;DHT22;61501;43.316;5.372;2023-04-03T03:37:48;10.50;98.00
73277;DHT22;61501;43.316;5.372;2023-04-03T03:40:14;10.50;98.00
73277;DHT22;61501;43.316;5.372;2023-04-03T03:42:39;10.40;98.10
73277;DHT22;61501;43.316;5.372;2023-04-03T03:45:06;10.50;98.20
73277;DHT22;61501;43.316;5.372;2023-04-03T03:47:32;10.40;98.20
73277;DHT22;61501;43.316;5.372;2023-04-03T03:49:57;10.40;98.10
73277;DHT22;61501;43.316;5.372;2023-04-03T03:52:23;10.40;98.10
73277;DHT22;61501;43.316;5.372;2023-04-03T03:54:48;10.40;98.20
73277;DHT22;61501;43.316;5.372;2023-04-03T03:57:14;10.40;98.20
73277;DHT22;61501;43.316;5.372;2023-04-03T03:59:40;10.40;98.10
73277;DHT22;61501;43.316;5.372;2023-04-03T04:02:07;10.40;98.20
73277;DHT22;61501;43.316;5.372;2023-04-03T04:04:33;10.50;98.30
73277;DHT22;61501;43.316;5.372;2023-04-03T04:06:59;10.50;98.30
73277;DHT22;61501;43.316;5.372;2023-04-03T04:09:26;10.50;98.50
73277;DHT22;61501;43.316;5.372;2023-04-03T04:11:52;10.40;98.50
73277;DHT22;61501;43.316;5.372;2023-04-03T04:14:17;10.40;98.60
73277;DHT22;61501;43.316;5.372;2023-04-03T04:16:46;10.40;98.70
73277;DHT22;61501;43.316;5.372;2023-04-03T04:19:12;10.40;98.70
73277;DHT22;61501;43.316;5.372;2023-04-03T04:21:38;10.40;98.70
73277;DHT22;61501;43.316;5.372;2023-04-03T04:24:05;10.40;98.70
73277;DHT22;61501;43.316;5.372;2023-04-03T04:26:31;10.40;98.70
73277;DHT22;61501;43.316;5.372;2023-04-03T04:28:56;10.40;98.80
73277;DHT22;61501;43.316;5.372;2023-04-03T04:31:22;10.30;99.00
73277;DHT22;61501;43.316;5.372;2023-04-03T04:33:48;10.30;99.30
73277;DHT22;61501;43.316;5.372;2023-04-03T04:36:13;10.30;99.50
73277;DHT22;61501;43.316;5.372;2023-04-03T04:38:40;10.30;99.60
73277;DHT22;61501;43.316;5.372;2023-04-03T04:41:06;10.20;99.70
73277;DHT22;61501;43.316;5.372;2023-04-03T04:43:32;10.20;99.90
73277;DHT22;61501;43.316;5.372;2023-04-03T04:46:16;10.20;99.90
73277;DHT22;61501;43.316;5.372;2023-04-03T04:48:42;10.20;99.90
73277;DHT22;61501;43.316;5.372;2023-04-03T04:51:08;10.20;99.90
73277;DHT22;61501;43.316;5.372;2023-04-03T04:53:34;10.20;99.90
73277;DHT22;61501;43.316;5.372;2023-04-03T04:56:00;10.20;99.90
73277;DHT22;61501;43.316;5.372;2023-04-03T04:58:25;10.10;99.90
73277;DHT22;61501;43.316;5.372;2023-04-03T05:01:06;10.20;99.90
73277;DHT22;61501;43.316;5.372;2023-04-03T05:03:32;10.10;99.90
73277;DHT22;61501;43.316;5.372;2023-04-03T05:05:57;10.10;99.90
73277;DHT22;61501;43.316;5.372;2023-04-03T05:08:23;10.10;99.90
73277;DHT22;61501;43.316;5.372;2023-04-03T05:10:49;10.10;99.90
73277;DHT22;61501;43.316;5.372;2023-04-03T05:13:15;10.00;99.90
73277;DHT22;61501;43.316;5.372;2023-04-03T05:15:40;10.10;99.90
73277;DHT22;61501;43.316;5.372;2023-04-03T05:18:06;10.10;99.90
73277;DHT22;61501;43.316;5.372;2023-04-03T05:20:33;10.10;99.90
73277;DHT22;61501;43.316;5.372;2023-04-03T05:22:59;10.10;99.90
73277;DHT22;61501;43.316;5.372;2023-04-03T05:25:24;10.00;99.90
73277;DHT22;61501;43.316;5.372;2023-04-03T05:27:50;10.00;99.90
73277;DHT22;61501;43.316;5.372;2023-04-03T05:30:17;10.00;99.90
73277;DHT22;61501;43.316;5.372;2023-04-03T05:32:43;9.90;99.90
73277;DHT22;61501;43.316;5.372;2023-04-03T05:35:09;10.10;99.90
73277;DHT22;61501;43.316;5.372;2023-04-03T05:37:36;10.20;99.90
73277;DHT22;61501;43.316;5.372;2023-04-03T05:40:02;10.20;99.90
73277;DHT22;61501;43.316;5.372;2023-04-03T05:42:28;10.20;99.90
73277;DHT22;61501;43.316;5.372;2023-04-03T05:44:54;10.20;99.90
73277;DHT22;61501;43.316;5.372;2023-04-03T05:47:19;10.20;99.90
73277;DHT22;61501;43.316;5.372;2023-04-03T05:49:45;10.20;99.90
73277;DHT22;61501;43.316;5.372;2023-04-03T05:52:26;10.20;99.90
73277;DHT22;61501;43.316;5.372;2023-04-03T05:54:52;10.30;99.90
73277;DHT22;61501;43.316;5.372;2023-04-03T05:57:18;10.40;99.90
73277;DHT22;61501;43.316;5.372;2023-04-03T05:59:45;10.40;99.80
73277;DHT22;61501;43.316;5.372;2023-04-03T06:02:14;10.50;99.60
73277;DHT22;61501;43.316;5.372;2023-04-03T06:04:40;10.60;99.00
73277;DHT22;61501;43.316;5.372;2023-04-03T06:07:06;10.60;98.90
73277;DHT22;61501;43.316;5.372;2023-04-03T06:09:33;10.60;99.00
73277;DHT22;61501;43.316;5.372;2023-04-03T06:11:59;10.50;99.20
73277;DHT22;61501;43.316;5.372;2023-04-03T06:14:25;10.50;99.60
73277;DHT22;61501;43.316;5.372;2023-04-03T06:16:52;10.50;99.50
73277;DHT22;61501;43.316;5.372;2023-04-03T06:19:18;10.50;99.50
73277;DHT22;61501;43.316;5.372;2023-04-03T06:21:43;10.50;99.70
73277;DHT22;61501;43.316;5.372;2023-04-03T06:24:13;10.40;99.60
73277;DHT22;61501;43.316;5.372;2023-04-03T06:26:40;10.40;99.60
73277;DHT22;61501;43.316;5.372;2023-04-03T06:29:05;10.50;99.60
73277;DHT22;61501;43.316;5.372;2023-04-03T06:31:31;10.50;99.50
73277;DHT22;61501;43.316;5.372;2023-04-03T06:33:57;10.50;99.40
73277;DHT22;61501;43.316;5.372;2023-04-03T06:36:23;10.50;99.50
73277;DHT22;61501;43.316;5.372;2023-04-03T06:38:48;10.60;99.10
73277;DHT22;61501;43.316;5.372;2023-04-03T06:41:15;10.50;98.80
73277;DHT22;61501;43.316;5.372;2023-04-03T06:43:42;10.60;98.80
73277;DHT22;61501;43.316;5.372;2023-04-03T06:46:20;10.70;98.70
73277;DHT22;61501;43.316;5.372;2023-04-03T06:48:46;10.80;98.40
73277;DHT22;61501;43.316;5.372;2023-04-03T06:51:35;10.80;98.10
73277;DHT22;61501;43.316;5.372;2023-04-03T06:54:01;10.80;97.80
73277;DHT22;61501;43.316;5.372;2023-04-03T06:56:28;10.90;97.50
73277;DHT22;61501;43.316;5.372;2023-04-03T06:58:56;10.90;97.00
73277;DHT22;61501;43.316;5.372;2023-04-03T07:01:24;10.90;96.80
73277;DHT22;61501;43.316;5.372;2023-04-03T07:03:51;10.90;96.60
73277;DHT22;61501;43.316;5.372;2023-04-03T07:06:18;10.90;96.90
73277;DHT22;61501;43.316;5.372;2023-04-03T07:08:45;11.00;96.90
73277;DHT22;61501;43.316;5.372;2023-04-03T07:11:12;11.10;96.20
73277;DHT22;61501;43.316;5.372;2023-04-03T07:13:38;11.10;96.30
73277;DHT22;61501;43.316;5.372;2023-04-03T07:16:04;11.10;96.60
73277;DHT22;61501;43.316;5.372;2023-04-03T07:18:32;11.20;96.40
73277;DHT22;61501;43.316;5.372;2023-04-03T07:20:58;11.20;95.60
73277;DHT22;61501;43.316;5.372;2023-04-03T07:23:24;11.30;95.60
73277;DHT22;61501;43.316;5.372;2023-04-03T07:25:51;11.30;95.20
73277;DHT22;61501;43.316;5.372;2023-04-03T07:28:18;11.40;95.20
73277;DHT22;61501;43.316;5.372;2023-04-03T07:30:49;11.40;95.10
73277;DHT22;61501;43.316;5.372;2023-04-03T07:33:18;11.50;94.70
73277;DHT22;61501;43.316;5.372;2023-04-03T07:35:44;11.60;94.80
73277;DHT22;61501;43.316;5.372;2023-04-03T07:38:10;11.60;94.60
73277;DHT22;61501;43.316;5.372;2023-04-03T07:40:37;11.60;94.70
73277;DHT22;61501;43.316;5.372;2023-04-03T07:43:04;11.70;94.60
73277;DHT22;61501;43.316;5.372;2023-04-03T07:45:29;11.80;94.80
73277;DHT22;61501;43.316;5.372;2023-04-03T07:47:55;11.80;94.20
73277;DHT22;61501;43.316;5.372;2023-04-03T07:50:21;11.80;94.30
73277;DHT22;61501;43.316;5.372;2023-04-03T07:52:47;11.90;94.50
73277;DHT22;61501;43.316;5.372;2023-04-03T07:55:13;11.90;93.90
73277;DHT22;61501;43.316;5.372;2023-04-03T07:57:39;12.00;93.50
73277;DHT22;61501;43.316;5.372;2023-04-03T08:00:07;12.10;93.50
73277;DHT22;61501;43.316;5.372;2023-04-03T08:02:34;12.20;93.30
73277;DHT22;61501;43.316;5.372;2023-04-03T08:04:59;12.20;93.00
73277;DHT22;61501;43.316;5.372;2023-04-03T08:07:25;12.30;92.40
73277;DHT22;61501;43.316;5.372;2023-04-03T08:09:51;12.40;92.50
73277;DHT22;61501;43.316;5.372;2023-04-03T08:12:17;12.50;92.20
73277;DHT22;61501;43.316;5.372;2023-04-03T08:14:42;12.50;91.50
73277;DHT22;61501;43.316;5.372;2023-04-03T08:17:09;12.60;91.40
73277;DHT22;61501;43.316;5.372;2023-04-03T08:19:38;12.60;91.50
73277;DHT22;61501;43.316;5.372;2023-04-03T08:22:04;12.60;91.20
73277;DHT22;61501;43.316;5.372;2023-04-03T08:24:31;12.60;91.20
73277;DHT22;61501;43.316;5.372;2023-04-03T08:26:57;12.80;91.00
73277;DHT22;61501;43.316;5.372;2023-04-03T08:29:23;12.70;90.90
73277;DHT22;61501;43.316;5.372;2023-04-03T08:31:49;12.70;91.10
73277;DHT22;61501;43.316;5.372;2023-04-03T08:34:16;12.90;90.40
73277;DHT22;61501;43.316;5.372;2023-04-03T08:36:42;13.00;90.40
73277;DHT22;61501;43.316;5.372;2023-04-03T08:39:07;13.00;89.90
73277;DHT22;61501;43.316;5.372;2023-04-03T08:41:37;13.20;89.40
73277;DHT22;61501;43.316;5.372;2023-04-03T08:49:45;13.30;86.10
73277;DHT22;61501;43.316;5.372;2023-04-03T08:52:21;13.40;85.20
73277;DHT22;61501;43.316;5.372;2023-04-03T08:54:50;13.50;85.20
73277;DHT22;61501;43.316;5.372;2023-04-03T08:57:17;13.60;84.50
73277;DHT22;61501;43.316;5.372;2023-04-03T08:59:45;13.70;83.60
73277;DHT22;61501;43.316;5.372;2023-04-03T09:04:54;13.80;81.20
73277;DHT22;61501;43.316;5.372;2023-04-03T09:07:44;13.90;81.70
73277;DHT22;61501;43.316;5.372;2023-04-03T09:10:13;14.00;79.40
73277;DHT22;61501;43.316;5.372;2023-04-03T09:12:42;14.00;81.10
73277;DHT22;61501;43.316;5.372;2023-04-03T09:15:16;14.10;78.70
73277;DHT22;61501;43.316;5.372;2023-04-03T09:18:00;14.30;80.30
73277;DHT22;61501;43.316;5.372;2023-04-03T09:23:32;14.40;88.90
73277;DHT22;61501;43.316;5.372;2023-04-03T09:26:14;14.40;90.10
73277;DHT22;61501;43.316;5.372;2023-04-03T09:28:41;14.40;88.30
73277;DHT22;61501;43.316;5.372;2023-04-03T09:31:27;14.50;88.70
73277;DHT22;61501;43.316;5.372;2023-04-03T09:33:58;14.60;87.70
73277;DHT22;61501;43.316;5.372;2023-04-03T09:36:44;14.70;87.10
73277;DHT22;61501;43.316;5.372;2023-04-03T09:39:15;14.80;85.60
73277;DHT22;61501;43.316;5.372;2023-04-03T09:41:42;14.80;87.60
73277;DHT22;61501;43.316;5.372;2023-04-03T09:44:31;14.80;83.60
73277;DHT22;61501;43.316;5.372;2023-04-03T09:46:57;15.00;83.90
73277;DHT22;61501;43.316;5.372;2023-04-03T09:49:23;15.00;84.30
73277;DHT22;61501;43.316;5.372;2023-04-03T09:51:49;15.00;84.00
73277;DHT22;61501;43.316;5.372;2023-04-03T09:56:53;15.20;83.40
73277;DHT22;61501;43.316;5.372;2023-04-03T09:59:21;15.30;83.30
73277;DHT22;61501;43.316;5.372;2023-04-03T10:04:39;15.30;82.00
73277;DHT22;61501;43.316;5.372;2023-04-03T10:07:30;15.40;81.60
73277;DHT22;61501;43.316;5.372;2023-04-03T10:09:58;15.40;81.30
73277;DHT22;61501;43.316;5.372;2023-04-03T10:12:24;15.30;81.40
73277;DHT22;61501;43.316;5.372;2023-04-03T10:20:17;15.50;80.20
73277;DHT22;61501;43.316;5.372;2023-04-03T10:28:48;15.50;79.30
73277;DHT22;61501;43.316;5.372;2023-04-03T10:31:23;15.60;79.10
73277;DHT22;61501;43.316;5.372;2023-04-03T10:34:06;15.60;76.80
73277;DHT22;61501;43.316;5.372;2023-04-03T10:39:32;15.70;76.60
73277;DHT22;61501;43.316;5.372;2023-04-03T10:42:28;15.70;74.70
73277;DHT22;61501;43.316;5.372;2023-04-03T10:57:59;16.20;72.50
73277;DHT22;61501;43.316;5.372;2023-04-03T11:00:47;16.30;71.60
73277;DHT22;61501;43.316;5.372;2023-04-03T11:03:22;16.30;71.30
73277;DHT22;61501;43.316;5.372;2023-04-03T11:05:52;16.30;71.00
73277;DHT22;61501;43.316;5.372;2023-04-03T11:11:25;16.20;72.40
73277;DHT22;61501;43.316;5.372;2023-04-03T11:14:40;16.40;70.50
73277;DHT22;61501;43.316;5.372;2023-04-03T11:16:51;16.40;71.20
73277;DHT22;61501;43.316;5.372;2023-04-03T11:19:43;16.40;69.70
73277;DHT22;61501;43.316;5.372;2023-04-03T11:22:25;16.40;70.70
73277;DHT22;61501;43.316;5.372;2023-04-03T11:25:20;16.60;70.00
73277;DHT22;61501;43.316;5.372;2023-04-03T11:28:02;16.60;67.50
73277;DHT22;61501;43.316;5.372;2023-04-03T11:30:46;16.60;68.00
73277;DHT22;61501;43.316;5.372;2023-04-03T11:33:37;16.70;69.70
73277;DHT22;61501;43.316;5.372;2023-04-03T11:36:13;16.90;70.50
73277;DHT22;61501;43.316;5.372;2023-04-03T11:38:45;16.90;71.70
73277;DHT22;61501;43.316;5.372;2023-04-03T11:41:13;16.70;70.90
73277;DHT22;61501;43.316;5.372;2023-04-03T11:43:56;16.70;69.70
73277;DHT22;61501;43.316;5.372;2023-04-03T11:46:23;16.80;69.10
73277;DHT22;61501;43.316;5.372;2023-04-03T11:52:12;17.00;68.10
73277;DHT22;61501;43.316;5.372;2023-04-03T11:54:45;17.10;67.20
73277;DHT22;61501;43.316;5.372;2023-04-03T12:01:08;17.80;66.60
73277;DHT22;61501;43.316;5.372;2023-04-03T12:06:20;19.10;60.10
73277;DHT22;61501;43.316;5.372;2023-04-03T12:08:52;20.30;56.90
73277;DHT22;61501;43.316;5.372;2023-04-03T12:11:32;21.00;52.70
73277;DHT22;61501;43.316;5.372;2023-04-03T12:14:01;21.90;47.90
73277;DHT22;61501;43.316;5.372;2023-04-03T12:19:04;21.90;45.80
73277;DHT22;61501;43.316;5.372;2023-04-03T12:37:43;22.70;44.90
73277;DHT22;61501;43.316;5.372;2023-04-03T12:54:02;22.40;44.50
73277;DHT22;61501;43.316;5.372;2023-04-03T12:56:32;22.50;43.70
73277;DHT22;61501;43.316;5.372;2023-04-03T12:59:22;22.60;44.40
73277;DHT22;61501;43.316;5.372;2023-04-03T13:01:58;22.70;43.80
73277;DHT22;61501;43.316;5.372;2023-04-03T13:04:24;23.20;42.10
73277;DHT22;61501;43.316;5.372;2023-04-03T13:06:50;22.80;43.90
73277;DHT22;61501;43.316;5.372;2023-04-03T13:09:27;22.50;45.10
73277;DHT22;61501;43.316;5.372;2023-04-03T13:12:00;22.50;46.00
73277;DHT22;61501;43.316;5.372;2023-04-03T13:14:27;22.70;45.80
73277;DHT22;61501;43.316;5.372;2023-04-03T13:19:27;22.60;45.80
73277;DHT22;61501;43.316;5.372;2023-04-03T13:22:01;22.80;44.00
73277;DHT22;61501;43.316;5.372;2023-04-03T13:24:29;22.60;44.80
73277;DHT22;61501;43.316;5.372;2023-04-03T13:26:56;22.40;44.80
73277;DHT22;61501;43.316;5.372;2023-04-03T13:29:27;22.30;45.30
73277;DHT22;61501;43.316;5.372;2023-04-03T13:31:56;22.60;44.70
73277;DHT22;61501;43.316;5.372;2023-04-03T13:34:27;22.70;43.20
73277;DHT22;61501;43.316;5.372;2023-04-03T13:36:55;22.80;43.40
73277;DHT22;61501;43.316;5.372;2023-04-03T13:39:45;22.20;44.40
73277;DHT22;61501;43.316;5.372;2023-04-03T13:42:23;22.10;45.50
73277;DHT22;61501;43.316;5.372;2023-04-03T13:47:46;22.30;45.00
73277;DHT22;61501;43.316;5.372;2023-04-03T13:52:46;22.10;46.40
73277;DHT22;61501;43.316;5.372;2023-04-03T13:55:27;22.00;45.90
73277;DHT22;61501;43.316;5.372;2023-04-03T13:58:02;22.30;46.70
73277;DHT22;61501;43.316;5.372;2023-04-03T14:04:01;21.80;44.90
73277;DHT22;61501;43.316;5.372;2023-04-03T14:06:34;22.30;43.40
73277;DHT22;61501;43.316;5.372;2023-04-03T14:09:00;21.90;43.50
73277;DHT22;61501;43.316;5.372;2023-04-03T14:11:29;21.80;43.30
73277;DHT22;61501;43.316;5.372;2023-04-03T14:13:58;21.80;42.20
73277;DHT22;61501;43.316;5.372;2023-04-03T14:16:29;21.70;42.60
73277;DHT22;61501;43.316;5.372;2023-04-03T14:18:56;22.00;42.70
73277;DHT22;61501;43.316;5.372;2023-04-03T14:21:22;21.80;43.60
73277;DHT22;61501;43.316;5.372;2023-04-03T14:23:48;21.50;43.10
73277;DHT22;61501;43.316;5.372;2023-04-03T14:26:19;21.90;41.90
73277;DHT22;61501;43.316;5.372;2023-04-03T14:28:48;22.00;41.90
73277;DHT22;61501;43.316;5.372;2023-04-03T14:31:15;21.80;42.90
73277;DHT22;61501;43.316;5.372;2023-04-03T14:33:41;21.80;43.00
73277;DHT22;61501;43.316;5.372;2023-04-03T14:36:13;21.80;41.40
73277;DHT22;61501;43.316;5.372;2023-04-03T14:38:39;21.90;41.60
73277;DHT22;61501;43.316;5.372;2023-04-03T14:41:06;21.60;42.40
73277;DHT22;61501;43.316;5.372;2023-04-03T14:43:32;21.60;41.70
73277;DHT22;61501;43.316;5.372;2023-04-03T14:45:58;21.00;42.90
73277;DHT22;61501;43.316;5.372;2023-04-03T14:48:26;21.10;41.00
73277;DHT22;61501;43.316;5.372;2023-04-03T14:50:53;21.10;41.10
73277;DHT22;61501;43.316;5.372;2023-04-03T14:53:19;21.10;43.90
73277;DHT22;61501;43.316;5.372;2023-04-03T14:55:49;21.30;43.60
73277;DHT22;61501;43.316;5.372;2023-04-03T14:58:17;21.20;43.50
73277;DHT22;61501;43.316;5.372;2023-04-03T15:00:44;21.70;41.10
73277;DHT22;61501;43.316;5.372;2023-04-03T15:03:20;21.80;40.50
73277;DHT22;61501;43.316;5.372;2023-04-03T15:05:48;21.70;41.00
73277;DHT22;61501;43.316;5.372;2023-04-03T15:08:20;21.70;41.80
73277;DHT22;61501;43.316;5.372;2023-04-03T15:10:47;21.60;42.60
73277;DHT22;61501;43.316;5.372;2023-04-03T15:13:13;21.40;40.90
73277;DHT22;61501;43.316;5.372;2023-04-03T15:15:39;21.20;41.60
73277;DHT22;61501;43.316;5.372;2023-04-03T15:18:05;20.90;43.70
73277;DHT22;61501;43.316;5.372;2023-04-03T15:20:31;21.20;43.60
73277;DHT22;61501;43.316;5.372;2023-04-03T15:22:59;20.90;44.40
73277;DHT22;61501;43.316;5.372;2023-04-03T15:25:30;21.10;45.00
73277;DHT22;61501;43.316;5.372;2023-04-03T15:27:57;21.30;43.40
73277;DHT22;61501;43.316;5.372;2023-04-03T15:30:23;21.50;42.80
73277;DHT22;61501;43.316;5.372;2023-04-03T15:32:49;21.60;43.50
73277;DHT22;61501;43.316;5.372;2023-04-03T15:35:15;21.20;44.10
73277;DHT22;61501;43.316;5.372;2023-04-03T15:37:41;20.80;44.50
73277;DHT22;61501;43.316;5.372;2023-04-03T15:40:07;21.00;44.70
73277;DHT22;61501;43.316;5.372;2023-04-03T15:42:33;21.30;45.10
73277;DHT22;61501;43.316;5.372;2023-04-03T15:44:59;21.00;45.90
73277;DHT22;61501;43.316;5.372;2023-04-03T15:47:26;20.90;45.20
73277;DHT22;61501;43.316;5.372;2023-04-03T15:49:52;21.10;46.20
73277;DHT22;61501;43.316;5.372;2023-04-03T15:52:18;21.40;43.80
73277;DHT22;61501;43.316;5.372;2023-04-03T15:54:44;21.20;42.90
73277;DHT22;61501;43.316;5.372;2023-04-03T15:57:10;21.00;44.20
73277;DHT22;61501;43.316;5.372;2023-04-03T15:59:36;20.90;44.90
73277;DHT22;61501;43.316;5.372;2023-04-03T16:02:03;21.00;45.90
73277;DHT22;61501;43.316;5.372;2023-04-03T16:04:30;21.30;45.60
73277;DHT22;61501;43.316;5.372;2023-04-03T16:06:57;21.10;46.00
73277;DHT22;61501;43.316;5.372;2023-04-03T16:09:23;20.80;46.60
73277;DHT22;61501;43.316;5.372;2023-04-03T16:11:48;20.60;47.50
73277;DHT22;61501;43.316;5.372;2023-04-03T16:14:14;20.50;48.00
73277;DHT22;61501;43.316;5.372;2023-04-03T16:16:40;21.10;46.50
73277;DHT22;61501;43.316;5.372;2023-04-03T16:19:05;20.80;46.70
73277;DHT22;61501;43.316;5.372;2023-04-03T16:21:32;21.20;45.90
73277;DHT22;61501;43.316;5.372;2023-04-03T16:23:58;21.60;44.90
73277;DHT22;61501;43.316;5.372;2023-04-03T16:26:24;21.60;44.90
73277;DHT22;61501;43.316;5.372;2023-04-03T16:28:50;21.40;44.80
73277;DHT22;61501;43.316;5.372;2023-04-03T16:31:16;21.40;45.30
73277;DHT22;61501;43.316;5.372;2023-04-03T16:33:42;21.10;45.40
73277;DHT22;61501;43.316;5.372;2023-04-03T16:36:10;20.90;46.30
73277;DHT22;61501;43.316;5.372;2023-04-03T16:38:36;21.20;45.40
73277;DHT22;61501;43.316;5.372;2023-04-03T16:41:02;21.10;45.80
73277;DHT22;61501;43.316;5.372;2023-04-03T16:43:30;21.50;44.70
73277;DHT22;61501;43.316;5.372;2023-04-03T16:45:57;21.60;44.30
73277;DHT22;61501;43.316;5.372;2023-04-03T16:48:25;21.70;43.90
73277;DHT22;61501;43.316;5.372;2023-04-03T16:50:51;21.20;45.10
73277;DHT22;61501;43.316;5.372;2023-04-03T16:53:22;21.10;45.30
73277;DHT22;61501;43.316;5.372;2023-04-03T16:55:48;20.90;45.40
73277;DHT22;61501;43.316;5.372;2023-04-03T16:58:15;21.10;45.30
73277;DHT22;61501;43.316;5.372;2023-04-03T17:00:41;20.80;45.50
73277;DHT22;61501;43.316;5.372;2023-04-03T17:03:07;20.60;46.70
73277;DHT22;61501;43.316;5.372;2023-04-03T17:05:33;21.00;44.90
73277;DHT22;61501;43.316;5.372;2023-04-03T17:07:58;21.50;44.30
73277;DHT22;61501;43.316;5.372;2023-04-03T17:10:25;21.10;44.90
73277;DHT22;61501;43.316;5.372;2023-04-03T17:12:51;21.50;44.40
73277;DHT22;61501;43.316;5.372;2023-04-03T17:15:16;21.30;45.20
73277;DHT22;61501;43.316;5.372;2023-04-03T17:17:42;20.90;45.20
73277;DHT22;61501;43.316;5.372;2023-04-03T17:20:09;20.80;46.20
73277;DHT22;61501;43.316;5.372;2023-04-03T17:22:46;20.40;46.20
73277;DHT22;61501;43.316;5.372;2023-04-03T17:25:12;19.80;47.40
73277;DHT22;61501;43.316;5.372;2023-04-03T17:27:40;19.40;48.90
73277;DHT22;61501;43.316;5.372;2023-04-03T17:30:06;19.00;49.70